Dahlgren, Virginia
Current Conditions -  °F | °C
As of 8:56 AM on Friday 31 Oct 2014 (Local Time) from KNYG Reporting Station
Broken Clouds Broken Clouds  
Wind Chill:   Ceiling: 15000
Heat Index:   Visibility: 10mi
Dew Point:   Wind: 7mph
Humidity: 86%   Direction: 310°NW
Pressure: 30.02"   Gusts: NA
Location:  38.33°N, 77.05°W
Report Text: KNYG 311256Z 31006KT 10SM BKN150 05/03 A3002 RMK AO2 SLP166 T00500028 $
Loading
Personal Weather Stations






























Interactive Weather Map
Tropical Storm Tracking
New forecast layout! Learn more

10-Day Weather Forecast

Advertisements
Track Severe Weather on mobile